Terminal Aerodrome Forecast
Issued by NWS Wilmington, OH

Home | Current Version | Previous Version | Text Only | Print | Product List | Glossary On
Versions: 1 2 3 4 5 6 7 8 9 10 11 12 13 14 15 16 17 18 19 20 21 22
000
FTUS41 KILN 251740
TAFCVG
TAF
KCVG 251740Z 2518/2624 21005KT P6SM FEW050 SCT250
     FM260600 18003KT P6SM BKN050 OVC150
     FM261100 20004KT P6SM VCSH BKN035
     FM261700 21010KT P6SM VCTS BKN022CB
     FM261900 23011KT P6SM VCTS BKN035CB
     FM262300 25007KT P6SM VCSH BKN035=

USA.gov is the U.S. government's official web portal to all federal, state and local government web resources and services.